Orbital elements of COSMOS 2251 DEB
| Launched | 15 June 1993 |
| Flight ended | – |
| Launch site | Plesetsk Missile and Space Complex, Russia |
| Owner | Commonwealth of Independent States (former USSR) |
| NORAD ID | 35829 |
| Date fetched |
Epoch osculation |
Inc. [°] |
Ecc. | RA asc node [hr] |
Arg Peri. [°] |
Mean anom [°] |
Mean motion [rev/day] |
Abs. mag |
| Date fetched |
Epoch osculation |
Inc. [°] |
Ecc. | RA asc node [hr] |
Arg Peri. [°] |
Mean anom [°] |
Mean motion [rev/day] |
Abs. mag |
| 2026 May 03 17:57 | 2026 Apr 29 12:35:33 | 74.0232 | 0.00079 | 12.5273 | 232.4729 | 127.5726 | 14.80189 | – |
| 2026 May 02 17:57 | 2026 Apr 29 12:35:33 | 74.0232 | 0.00079 | 12.5273 | 232.4729 | 127.5726 | 14.80189 | – |
| 2026 May 01 17:56 | 2026 Apr 29 12:35:33 | 74.0232 | 0.00079 | 12.5273 | 232.4729 | 127.5726 | 14.80189 | – |
| 2026 Apr 30 17:56 | 2026 Apr 29 12:35:33 | 74.0232 | 0.00079 | 12.5273 | 232.4729 | 127.5726 | 14.80189 | – |
| 2026 Apr 29 17:57 | 2026 Apr 23 12:13:13 | 74.0236 | 0.00081 | 13.3181 | 242.2866 | 127.5726 | 14.80189 | – |
| 2026 Apr 28 17:56 | 2026 Apr 23 12:13:13 | 74.0236 | 0.00081 | 13.3181 | 242.2866 | 127.5726 | 14.80189 | – |
| 2026 Apr 27 17:58 | 2026 Apr 23 12:13:13 | 74.0236 | 0.00081 | 13.3181 | 242.2866 | 127.5726 | 14.80189 | – |
| 2026 Apr 26 17:58 | 2026 Apr 23 12:13:13 | 74.0236 | 0.00081 | 13.3181 | 242.2866 | 127.5726 | 14.80189 | – |
| 2026 Apr 25 17:58 | 2026 Apr 23 12:13:13 | 74.0236 | 0.00081 | 13.3181 | 242.2866 | 127.5726 | 14.80189 | – |
| 2026 Apr 24 17:59 | 2026 Apr 23 12:13:13 | 74.0236 | 0.00081 | 13.3181 | 242.2866 | 127.5726 | 14.80189 | – |
| 2026 Apr 23 17:57 | 2026 Apr 16 13:07:28 | 74.0239 | 0.00080 | 14.2329 | 253.7553 | 127.5726 | 14.80189 | – |
| 2026 Apr 22 17:57 | 2026 Apr 16 13:07:28 | 74.0239 | 0.00080 | 14.2329 | 253.7553 | 127.5726 | 14.80189 | – |
| 2026 Apr 21 17:57 | 2026 Apr 16 13:07:28 | 74.0239 | 0.00080 | 14.2329 | 253.7553 | 127.5726 | 14.80189 | – |
| 2026 Apr 20 17:57 | 2026 Apr 16 13:07:28 | 74.0239 | 0.00080 | 14.2329 | 253.7553 | 127.5726 | 14.80189 | – |
| 2026 Apr 19 17:58 | 2026 Apr 16 13:07:28 | 74.0239 | 0.00080 | 14.2329 | 253.7553 | 127.5726 | 14.80189 | – |
| 2026 Apr 18 17:56 | 2026 Apr 11 01:42:44 | 74.0234 | 0.00077 | 14.9524 | 262.9344 | 127.5726 | 14.80189 | – |
| 2026 Apr 16 17:57 | 2026 Apr 11 01:42:44 | 74.0234 | 0.00077 | 14.9524 | 262.9344 | 127.5726 | 14.80189 | – |
| 2026 Apr 14 17:57 | 2026 Apr 11 01:42:44 | 74.0234 | 0.00077 | 14.9524 | 262.9344 | 127.5726 | 14.80189 | – |
| 2026 Apr 13 17:57 | 2026 Apr 11 01:42:44 | 74.0234 | 0.00077 | 14.9524 | 262.9344 | 127.5726 | 14.80189 | – |
| 2026 Apr 12 17:57 | 2026 Apr 08 15:18:15 | 74.0233 | 0.00074 | 15.2721 | 267.3161 | 127.5726 | 14.80189 | – |
| 2026 Apr 11 17:57 | 2026 Apr 08 15:18:15 | 74.0233 | 0.00074 | 15.2721 | 267.3161 | 127.5726 | 14.80189 | – |
| 2026 Apr 10 17:58 | 2026 Apr 08 15:18:15 | 74.0233 | 0.00074 | 15.2721 | 267.3161 | 127.5726 | 14.80189 | – |
| 2026 Apr 09 18:01 | 2026 Apr 08 15:18:15 | 74.0233 | 0.00074 | 15.2721 | 267.3161 | 127.5726 | 14.80189 | – |
| 2026 Apr 08 17:57 | 2026 Apr 08 15:18:15 | 74.0233 | 0.00074 | 15.2721 | 267.3161 | 127.5726 | 14.80189 | – |
| 2026 Apr 07 17:57 | 2026 Apr 01 09:41:09 | 74.0225 | 0.00071 | 16.2224 | 277.3311 | 127.5726 | 14.80189 | – |
| 2026 Apr 06 17:57 | 2026 Apr 01 09:41:09 | 74.0225 | 0.00071 | 16.2224 | 277.3311 | 127.5726 | 14.80189 | – |